sensor_id;sensor_type;location;lat;lon;timestamp;P1;durP1;ratioP1;P2;durP2;ratioP2
18082;SDS011;9168;51.194;6.840;2023-07-13T00:01:34;6.97;;;2.20;;
18082;SDS011;9168;51.194;6.840;2023-07-13T00:04:03;6.15;;;1.77;;
18082;SDS011;9168;51.194;6.840;2023-07-13T00:06:31;5.95;;;1.80;;
18082;SDS011;9168;51.194;6.840;2023-07-13T00:08:57;7.45;;;2.20;;
18082;SDS011;9168;51.194;6.840;2023-07-13T00:11:26;10.95;;;1.77;;
18082;SDS011;9168;51.194;6.840;2023-07-13T00:13:53;6.10;;;1.83;;
18082;SDS011;9168;51.194;6.840;2023-07-13T00:16:20;12.30;;;2.28;;
18082;SDS011;9168;51.194;6.840;2023-07-13T00:18:47;14.20;;;2.17;;
18082;SDS011;9168;51.194;6.840;2023-07-13T00:21:12;10.00;;;2.03;;
18082;SDS011;9168;51.194;6.840;2023-07-13T00:23:40;7.38;;;1.80;;
18082;SDS011;9168;51.194;6.840;2023-07-13T00:26:09;10.65;;;1.95;;
18082;SDS011;9168;51.194;6.840;2023-07-13T00:28:38;7.57;;;2.10;;
18082;SDS011;9168;51.194;6.840;2023-07-13T00:31:07;10.32;;;2.00;;
18082;SDS011;9168;51.194;6.840;2023-07-13T00:33:34;9.57;;;2.13;;
18082;SDS011;9168;51.194;6.840;2023-07-13T00:36:01;12.25;;;2.35;;
18082;SDS011;9168;51.194;6.840;2023-07-13T00:38:28;11.02;;;2.50;;
18082;SDS011;9168;51.194;6.840;2023-07-13T00:40:55;13.45;;;2.35;;
18082;SDS011;9168;51.194;6.840;2023-07-13T00:43:22;13.20;;;2.50;;
18082;SDS011;9168;51.194;6.840;2023-07-13T00:46:10;13.88;;;2.60;;
18082;SDS011;9168;51.194;6.840;2023-07-13T00:48:46;14.07;;;2.38;;
18082;SDS011;9168;51.194;6.840;2023-07-13T00:51:16;13.02;;;2.13;;
18082;SDS011;9168;51.194;6.840;2023-07-13T00:53:46;7.35;;;2.08;;
18082;SDS011;9168;51.194;6.840;2023-07-13T00:56:13;13.95;;;2.67;;
18082;SDS011;9168;51.194;6.840;2023-07-13T00:58:40;7.68;;;2.05;;
18082;SDS011;9168;51.194;6.840;2023-07-13T01:01:07;12.15;;;2.30;;
18082;SDS011;9168;51.194;6.840;2023-07-13T01:03:35;10.20;;;1.88;;
18082;SDS011;9168;51.194;6.840;2023-07-13T01:06:03;4.85;;;1.70;;
18082;SDS011;9168;51.194;6.840;2023-07-13T01:08:30;9.68;;;2.65;;
18082;SDS011;9168;51.194;6.840;2023-07-13T01:10:57;9.20;;;2.05;;
18082;SDS011;9168;51.194;6.840;2023-07-13T01:13:25;7.28;;;2.00;;
18082;SDS011;9168;51.194;6.840;2023-07-13T01:15:52;11.20;;;2.63;;
18082;SDS011;9168;51.194;6.840;2023-07-13T01:18:25;9.63;;;2.25;;
18082;SDS011;9168;51.194;6.840;2023-07-13T01:20:55;12.60;;;2.15;;
18082;SDS011;9168;51.194;6.840;2023-07-13T01:23:22;8.15;;;2.05;;
18082;SDS011;9168;51.194;6.840;2023-07-13T01:25:50;10.32;;;2.00;;
18082;SDS011;9168;51.194;6.840;2023-07-13T01:28:17;11.93;;;2.30;;
18082;SDS011;9168;51.194;6.840;2023-07-13T01:30:45;12.10;;;2.35;;
18082;SDS011;9168;51.194;6.840;2023-07-13T01:33:13;10.05;;;2.22;;
18082;SDS011;9168;51.194;6.840;2023-07-13T01:35:41;10.57;;;2.35;;
18082;SDS011;9168;51.194;6.840;2023-07-13T01:38:10;11.48;;;2.72;;
18082;SDS011;9168;51.194;6.840;2023-07-13T01:40:38;9.63;;;2.25;;
18082;SDS011;9168;51.194;6.840;2023-07-13T01:43:05;9.25;;;2.35;;
18082;SDS011;9168;51.194;6.840;2023-07-13T01:45:32;10.10;;;2.58;;
18082;SDS011;9168;51.194;6.840;2023-07-13T01:47:59;11.05;;;2.30;;
18082;SDS011;9168;51.194;6.840;2023-07-13T01:50:26;10.18;;;3.10;;
18082;SDS011;9168;51.194;6.840;2023-07-13T01:52:53;13.23;;;2.42;;
18082;SDS011;9168;51.194;6.840;2023-07-13T01:55:21;9.95;;;2.17;;
18082;SDS011;9168;51.194;6.840;2023-07-13T01:57:48;12.85;;;2.20;;
18082;SDS011;9168;51.194;6.840;2023-07-13T02:00:15;15.57;;;2.28;;
18082;SDS011;9168;51.194;6.840;2023-07-13T02:02:43;9.73;;;2.45;;
18082;SDS011;9168;51.194;6.840;2023-07-13T02:05:10;11.85;;;2.55;;
18082;SDS011;9168;51.194;6.840;2023-07-13T02:07:37;7.88;;;2.30;;
18082;SDS011;9168;51.194;6.840;2023-07-13T02:10:05;9.35;;;2.28;;
18082;SDS011;9168;51.194;6.840;2023-07-13T02:12:34;6.75;;;2.00;;
18082;SDS011;9168;51.194;6.840;2023-07-13T02:15:01;11.40;;;2.22;;
18082;SDS011;9168;51.194;6.840;2023-07-13T02:17:28;10.85;;;2.03;;
18082;SDS011;9168;51.194;6.840;2023-07-13T02:19:55;13.57;;;2.70;;
18082;SDS011;9168;51.194;6.840;2023-07-13T02:22:22;15.02;;;2.33;;
18082;SDS011;9168;51.194;6.840;2023-07-13T02:24:49;7.90;;;2.00;;
18082;SDS011;9168;51.194;6.840;2023-07-13T02:27:16;12.00;;;2.35;;
18082;SDS011;9168;51.194;6.840;2023-07-13T02:29:44;6.43;;;1.90;;
18082;SDS011;9168;51.194;6.840;2023-07-13T02:32:11;7.13;;;2.63;;
18082;SDS011;9168;51.194;6.840;2023-07-13T02:34:40;15.05;;;2.33;;
18082;SDS011;9168;51.194;6.840;2023-07-13T02:37:07;9.55;;;2.22;;
18082;SDS011;9168;51.194;6.840;2023-07-13T02:39:34;5.95;;;1.92;;
18082;SDS011;9168;51.194;6.840;2023-07-13T02:42:01;9.13;;;2.15;;
18082;SDS011;9168;51.194;6.840;2023-07-13T02:44:28;12.35;;;2.50;;
18082;SDS011;9168;51.194;6.840;2023-07-13T02:46:56;9.98;;;2.15;;
18082;SDS011;9168;51.194;6.840;2023-07-13T02:49:23;9.77;;;2.75;;
18082;SDS011;9168;51.194;6.840;2023-07-13T02:51:50;9.00;;;2.20;;
18082;SDS011;9168;51.194;6.840;2023-07-13T02:54:17;5.35;;;1.70;;
18082;SDS011;9168;51.194;6.840;2023-07-13T02:56:44;14.63;;;2.70;;
18082;SDS011;9168;51.194;6.840;2023-07-13T02:59:11;10.45;;;1.95;;
18082;SDS011;9168;51.194;6.840;2023-07-13T03:01:38;15.45;;;2.50;;
18082;SDS011;9168;51.194;6.840;2023-07-13T03:04:06;13.88;;;2.65;;
18082;SDS011;9168;51.194;6.840;2023-07-13T03:06:33;17.25;;;2.50;;
18082;SDS011;9168;51.194;6.840;2023-07-13T03:09:00;11.55;;;2.13;;
18082;SDS011;9168;51.194;6.840;2023-07-13T03:11:27;7.65;;;2.30;;
18082;SDS011;9168;51.194;6.840;2023-07-13T03:13:54;8.57;;;2.22;;
18082;SDS011;9168;51.194;6.840;2023-07-13T03:16:21;9.75;;;2.28;;
18082;SDS011;9168;51.194;6.840;2023-07-13T03:18:48;9.77;;;2.22;;
18082;SDS011;9168;51.194;6.840;2023-07-13T03:21:17;14.02;;;2.30;;
18082;SDS011;9168;51.194;6.840;2023-07-13T03:23:44;13.45;;;2.65;;
18082;SDS011;9168;51.194;6.840;2023-07-13T03:26:12;7.20;;;2.13;;
18082;SDS011;9168;51.194;6.840;2023-07-13T03:28:41;12.38;;;2.67;;
18082;SDS011;9168;51.194;6.840;2023-07-13T03:31:09;13.25;;;2.58;;
18082;SDS011;9168;51.194;6.840;2023-07-13T03:33:37;10.15;;;2.28;;
18082;SDS011;9168;51.194;6.840;2023-07-13T03:36:05;12.25;;;2.28;;
18082;SDS011;9168;51.194;6.840;2023-07-13T03:38:35;8.25;;;2.05;;
18082;SDS011;9168;51.194;6.840;2023-07-13T03:41:02;9.23;;;2.25;;
18082;SDS011;9168;51.194;6.840;2023-07-13T03:43:29;9.77;;;2.30;;
18082;SDS011;9168;51.194;6.840;2023-07-13T03:45:56;7.05;;;2.20;;
18082;SDS011;9168;51.194;6.840;2023-07-13T03:48:23;9.02;;;2.20;;
18082;SDS011;9168;51.194;6.840;2023-07-13T03:50:50;8.15;;;2.00;;
18082;SDS011;9168;51.194;6.840;2023-07-13T03:53:17;16.92;;;2.20;;
18082;SDS011;9168;51.194;6.840;2023-07-13T03:55:45;7.30;;;2.03;;
18082;SDS011;9168;51.194;6.840;2023-07-13T03:58:26;12.60;;;2.30;;
18082;SDS011;9168;51.194;6.840;2023-07-13T04:00:55;12.32;;;2.17;;
18082;SDS011;9168;51.194;6.840;2023-07-13T04:03:23;18.67;;;2.35;;
18082;SDS011;9168;51.194;6.840;2023-07-13T04:05:53;6.53;;;1.70;;
18082;SDS011;9168;51.194;6.840;2023-07-13T04:08:20;6.78;;;1.80;;
18082;SDS011;9168;51.194;6.840;2023-07-13T04:10:48;11.15;;;2.00;;
18082;SDS011;9168;51.194;6.840;2023-07-13T04:13:15;11.32;;;2.35;;
18082;SDS011;9168;51.194;6.840;2023-07-13T04:15:42;16.65;;;2.20;;
18082;SDS011;9168;51.194;6.840;2023-07-13T04:18:09;9.50;;;2.08;;
18082;SDS011;9168;51.194;6.840;2023-07-13T04:20:36;13.88;;;2.25;;
18082;SDS011;9168;51.194;6.840;2023-07-13T04:23:03;10.80;;;2.10;;
18082;SDS011;9168;51.194;6.840;2023-07-13T04:25:30;8.40;;;2.13;;
18082;SDS011;9168;51.194;6.840;2023-07-13T04:27:58;12.15;;;2.00;;
18082;SDS011;9168;51.194;6.840;2023-07-13T04:30:25;6.97;;;2.10;;
18082;SDS011;9168;51.194;6.840;2023-07-13T04:32:52;9.57;;;2.28;;
18082;SDS011;9168;51.194;6.840;2023-07-13T04:35:19;10.43;;;2.35;;
18082;SDS011;9168;51.194;6.840;2023-07-13T04:37:47;9.60;;;2.55;;
18082;SDS011;9168;51.194;6.840;2023-07-13T04:40:15;11.23;;;2.47;;
18082;SDS011;9168;51.194;6.840;2023-07-13T04:42:43;15.52;;;2.28;;
18082;SDS011;9168;51.194;6.840;2023-07-13T04:45:11;15.20;;;2.53;;
18082;SDS011;9168;51.194;6.840;2023-07-13T04:47:39;10.85;;;2.42;;
18082;SDS011;9168;51.194;6.840;2023-07-13T04:50:07;9.38;;;2.03;;
18082;SDS011;9168;51.194;6.840;2023-07-13T04:52:35;14.85;;;2.33;;
18082;SDS011;9168;51.194;6.840;2023-07-13T04:55:02;10.40;;;2.50;;
18082;SDS011;9168;51.194;6.840;2023-07-13T04:57:30;11.15;;;2.35;;
18082;SDS011;9168;51.194;6.840;2023-07-13T04:59:57;12.55;;;2.38;;
18082;SDS011;9168;51.194;6.840;2023-07-13T05:02:27;11.35;;;2.30;;
18082;SDS011;9168;51.194;6.840;2023-07-13T05:04:56;13.35;;;2.90;;
18082;SDS011;9168;51.194;6.840;2023-07-13T05:07:23;8.07;;;2.53;;
18082;SDS011;9168;51.194;6.840;2023-07-13T05:09:50;13.57;;;3.10;;
18082;SDS011;9168;51.194;6.840;2023-07-13T05:12:17;12.98;;;2.35;;
18082;SDS011;9168;51.194;6.840;2023-07-13T05:14:44;22.45;;;2.95;;
18082;SDS011;9168;51.194;6.840;2023-07-13T05:17:11;11.80;;;2.33;;
18082;SDS011;9168;51.194;6.840;2023-07-13T05:19:39;14.23;;;2.40;;
18082;SDS011;9168;51.194;6.840;2023-07-13T05:22:06;14.25;;;2.60;;
18082;SDS011;9168;51.194;6.840;2023-07-13T05:24:33;10.77;;;2.40;;
18082;SDS011;9168;51.194;6.840;2023-07-13T05:27:00;15.27;;;2.70;;
18082;SDS011;9168;51.194;6.840;2023-07-13T05:29:27;11.10;;;2.30;;
18082;SDS011;9168;51.194;6.840;2023-07-13T05:31:54;14.95;;;3.08;;
18082;SDS011;9168;51.194;6.840;2023-07-13T05:34:22;15.93;;;2.63;;
18082;SDS011;9168;51.194;6.840;2023-07-13T05:36:50;8.93;;;2.38;;
18082;SDS011;9168;51.194;6.840;2023-07-13T05:39:17;8.05;;;2.70;;
18082;SDS011;9168;51.194;6.840;2023-07-13T05:41:44;12.73;;;2.85;;
18082;SDS011;9168;51.194;6.840;2023-07-13T05:44:11;11.85;;;2.65;;
18082;SDS011;9168;51.194;6.840;2023-07-13T05:46:37;19.52;;;2.53;;
18082;SDS011;9168;51.194;6.840;2023-07-13T05:49:04;14.38;;;2.67;;
18082;SDS011;9168;51.194;6.840;2023-07-13T05:51:31;17.15;;;3.05;;
18082;SDS011;9168;51.194;6.840;2023-07-13T05:53:59;9.65;;;2.13;;
18082;SDS011;9168;51.194;6.840;2023-07-13T05:56:26;14.73;;;2.42;;
18082;SDS011;9168;51.194;6.840;2023-07-13T05:58:53;10.05;;;2.40;;
18082;SDS011;9168;51.194;6.840;2023-07-13T06:01:20;13.52;;;2.60;;
18082;SDS011;9168;51.194;6.840;2023-07-13T06:03:48;8.85;;;2.38;;
18082;SDS011;9168;51.194;6.840;2023-07-13T06:06:15;13.88;;;2.55;;
18082;SDS011;9168;51.194;6.840;2023-07-13T06:08:42;11.65;;;2.40;;
18082;SDS011;9168;51.194;6.840;2023-07-13T06:11:12;11.05;;;2.60;;
18082;SDS011;9168;51.194;6.840;2023-07-13T06:13:41;12.88;;;2.38;;
18082;SDS011;9168;51.194;6.840;2023-07-13T06:16:08;21.02;;;2.88;;
18082;SDS011;9168;51.194;6.840;2023-07-13T06:18:36;12.00;;;2.53;;
18082;SDS011;9168;51.194;6.840;2023-07-13T06:21:07;16.50;;;2.70;;
18082;SDS011;9168;51.194;6.840;2023-07-13T06:23:34;20.52;;;2.95;;
18082;SDS011;9168;51.194;6.840;2023-07-13T06:26:02;19.30;;;3.25;;
18082;SDS011;9168;51.194;6.840;2023-07-13T06:28:30;18.50;;;2.72;;
18082;SDS011;9168;51.194;6.840;2023-07-13T06:30:58;16.48;;;2.90;;
18082;SDS011;9168;51.194;6.840;2023-07-13T06:33:25;18.30;;;3.30;;
18082;SDS011;9168;51.194;6.840;2023-07-13T06:35:52;14.35;;;2.90;;
18082;SDS011;9168;51.194;6.840;2023-07-13T06:38:20;21.52;;;3.22;;
18082;SDS011;9168;51.194;6.840;2023-07-13T06:40:46;11.90;;;2.78;;
18082;SDS011;9168;51.194;6.840;2023-07-13T06:43:13;15.70;;;3.08;;
18082;SDS011;9168;51.194;6.840;2023-07-13T06:45:43;16.95;;;2.97;;
18082;SDS011;9168;51.194;6.840;2023-07-13T06:48:12;16.00;;;3.17;;
18082;SDS011;9168;51.194;6.840;2023-07-13T06:50:39;17.30;;;3.00;;
18082;SDS011;9168;51.194;6.840;2023-07-13T06:53:07;13.88;;;2.92;;
18082;SDS011;9168;51.194;6.840;2023-07-13T06:55:34;14.55;;;3.03;;
18082;SDS011;9168;51.194;6.840;2023-07-13T06:58:01;13.45;;;2.60;;
18082;SDS011;9168;51.194;6.840;2023-07-13T07:00:27;13.43;;;2.92;;
18082;SDS011;9168;51.194;6.840;2023-07-13T07:02:56;14.82;;;3.38;;
18082;SDS011;9168;51.194;6.840;2023-07-13T07:05:23;13.10;;;2.83;;
18082;SDS011;9168;51.194;6.840;2023-07-13T07:07:50;15.85;;;3.22;;
18082;SDS011;9168;51.194;6.840;2023-07-13T07:10:17;10.95;;;2.70;;
18082;SDS011;9168;51.194;6.840;2023-07-13T07:12:45;19.98;;;3.13;;
18082;SDS011;9168;51.194;6.840;2023-07-13T07:15:12;14.05;;;3.10;;
18082;SDS011;9168;51.194;6.840;2023-07-13T07:17:40;14.38;;;3.03;;
18082;SDS011;9168;51.194;6.840;2023-07-13T07:20:09;15.88;;;3.05;;
18082;SDS011;9168;51.194;6.840;2023-07-13T07:22:36;17.00;;;3.35;;
18082;SDS011;9168;51.194;6.840;2023-07-13T07:25:04;16.55;;;2.88;;
18082;SDS011;9168;51.194;6.840;2023-07-13T07:27:31;16.63;;;3.33;;
18082;SDS011;9168;51.194;6.840;2023-07-13T07:29:59;14.30;;;2.72;;
18082;SDS011;9168;51.194;6.840;2023-07-13T07:32:26;22.95;;;3.47;;
18082;SDS011;9168;51.194;6.840;2023-07-13T07:34:55;12.55;;;3.00;;
18082;SDS011;9168;51.194;6.840;2023-07-13T07:37:23;19.30;;;3.10;;
18082;SDS011;9168;51.194;6.840;2023-07-13T07:39:50;15.48;;;3.13;;
18082;SDS011;9168;51.194;6.840;2023-07-13T07:42:17;14.88;;;2.95;;
18082;SDS011;9168;51.194;6.840;2023-07-13T07:44:44;12.57;;;2.70;;
18082;SDS011;9168;51.194;6.840;2023-07-13T07:47:10;24.08;;;3.55;;
18082;SDS011;9168;51.194;6.840;2023-07-13T07:49:37;15.50;;;3.47;;
18082;SDS011;9168;51.194;6.840;2023-07-13T07:52:05;15.68;;;3.17;;
18082;SDS011;9168;51.194;6.840;2023-07-13T07:54:34;19.70;;;4.03;;
18082;SDS011;9168;51.194;6.840;2023-07-13T07:57:00;17.27;;;3.00;;
18082;SDS011;9168;51.194;6.840;2023-07-13T07:59:27;22.67;;;3.17;;
18082;SDS011;9168;51.194;6.840;2023-07-13T08:01:54;15.23;;;2.97;;
18082;SDS011;9168;51.194;6.840;2023-07-13T08:04:21;14.02;;;3.08;;
18082;SDS011;9168;51.194;6.840;2023-07-13T08:06:48;11.40;;;2.78;;
18082;SDS011;9168;51.194;6.840;2023-07-13T08:09:15;17.52;;;3.17;;
18082;SDS011;9168;51.194;6.840;2023-07-13T08:11:43;20.58;;;3.15;;
18082;SDS011;9168;51.194;6.840;2023-07-13T08:14:10;13.27;;;2.65;;
18082;SDS011;9168;51.194;6.840;2023-07-13T08:16:37;19.00;;;3.15;;
18082;SDS011;9168;51.194;6.840;2023-07-13T08:19:04;12.68;;;3.40;;
18082;SDS011;9168;51.194;6.840;2023-07-13T08:21:31;24.48;;;3.70;;
18082;SDS011;9168;51.194;6.840;2023-07-13T08:23:58;19.33;;;3.90;;
18082;SDS011;9168;51.194;6.840;2023-07-13T08:26:25;11.50;;;2.97;;
18082;SDS011;9168;51.194;6.840;2023-07-13T08:28:53;16.20;;;3.22;;
18082;SDS011;9168;51.194;6.840;2023-07-13T08:31:20;11.55;;;3.33;;
18082;SDS011;9168;51.194;6.840;2023-07-13T08:33:47;14.65;;;3.75;;
18082;SDS011;9168;51.194;6.840;2023-07-13T08:36:13;14.88;;;3.25;;
18082;SDS011;9168;51.194;6.840;2023-07-13T08:38:40;20.42;;;3.72;;
18082;SDS011;9168;51.194;6.840;2023-07-13T08:41:11;13.18;;;3.13;;
18082;SDS011;9168;51.194;6.840;2023-07-13T08:43:39;16.92;;;3.28;;
18082;SDS011;9168;51.194;6.840;2023-07-13T08:46:12;15.73;;;3.70;;
18082;SDS011;9168;51.194;6.840;2023-07-13T08:48:42;15.60;;;3.70;;
18082;SDS011;9168;51.194;6.840;2023-07-13T08:51:18;24.25;;;3.92;;
18082;SDS011;9168;51.194;6.840;2023-07-13T08:53:58;16.25;;;3.50;;
18082;SDS011;9168;51.194;6.840;2023-07-13T08:56:28;17.70;;;3.25;;
18082;SDS011;9168;51.194;6.840;2023-07-13T08:58:57;18.08;;;3.42;;
18082;SDS011;9168;51.194;6.840;2023-07-13T09:01:30;20.63;;;3.53;;
18082;SDS011;9168;51.194;6.840;2023-07-13T09:04:09;12.60;;;3.00;;
18082;SDS011;9168;51.194;6.840;2023-07-13T09:06:42;15.95;;;3.25;;
18082;SDS011;9168;51.194;6.840;2023-07-13T09:09:30;18.17;;;3.33;;
18082;SDS011;9168;51.194;6.840;2023-07-13T09:12:08;13.75;;;2.92;;
18082;SDS011;9168;51.194;6.840;2023-07-13T09:14:43;14.20;;;2.80;;
18082;SDS011;9168;51.194;6.840;2023-07-13T09:17:14;15.50;;;3.17;;
18082;SDS011;9168;51.194;6.840;2023-07-13T09:19:46;17.10;;;3.33;;
18082;SDS011;9168;51.194;6.840;2023-07-13T09:22:22;14.15;;;3.22;;
18082;SDS011;9168;51.194;6.840;2023-07-13T09:24:55;21.38;;;3.40;;
18082;SDS011;9168;51.194;6.840;2023-07-13T09:27:29;14.60;;;2.92;;
18082;SDS011;9168;51.194;6.840;2023-07-13T09:30:07;18.42;;;3.58;;
18082;SDS011;9168;51.194;6.840;2023-07-13T09:32:50;16.17;;;3.38;;
18082;SDS011;9168;51.194;6.840;2023-07-13T09:35:19;15.75;;;3.38;;
18082;SDS011;9168;51.194;6.840;2023-07-13T09:37:48;17.08;;;2.90;;
18082;SDS011;9168;51.194;6.840;2023-07-13T09:40:17;15.25;;;3.47;;
18082;SDS011;9168;51.194;6.840;2023-07-13T09:42:52;10.82;;;2.88;;
18082;SDS011;9168;51.194;6.840;2023-07-13T09:45:26;19.25;;;3.70;;
18082;SDS011;9168;51.194;6.840;2023-07-13T09:48:00;10.95;;;2.70;;
18082;SDS011;9168;51.194;6.840;2023-07-13T09:50:31;18.27;;;2.97;;
18082;SDS011;9168;51.194;6.840;2023-07-13T09:52:57;15.07;;;3.08;;
18082;SDS011;9168;51.194;6.840;2023-07-13T09:55:29;14.10;;;3.30;;
18082;SDS011;9168;51.194;6.840;2023-07-13T09:57:57;15.27;;;3.15;;
18082;SDS011;9168;51.194;6.840;2023-07-13T10:00:30;14.93;;;2.97;;
18082;SDS011;9168;51.194;6.840;2023-07-13T10:02:59;17.75;;;3.42;;
18082;SDS011;9168;51.194;6.840;2023-07-13T10:05:37;12.95;;;2.70;;
18082;SDS011;9168;51.194;6.840;2023-07-13T10:08:05;10.75;;;3.05;;
18082;SDS011;9168;51.194;6.840;2023-07-13T10:10:35;13.60;;;2.35;;
18082;SDS011;9168;51.194;6.840;2023-07-13T10:13:02;11.93;;;2.70;;
18082;SDS011;9168;51.194;6.840;2023-07-13T10:15:30;17.85;;;3.15;;
18082;SDS011;9168;51.194;6.840;2023-07-13T10:18:00;13.85;;;2.88;;
18082;SDS011;9168;51.194;6.840;2023-07-13T10:20:27;10.13;;;2.63;;
18082;SDS011;9168;51.194;6.840;2023-07-13T10:22:55;14.38;;;2.83;;
18082;SDS011;9168;51.194;6.840;2023-07-13T10:25:26;18.17;;;3.22;;
18082;SDS011;9168;51.194;6.840;2023-07-13T10:27:58;12.02;;;2.78;;
18082;SDS011;9168;51.194;6.840;2023-07-13T10:30:31;10.55;;;2.55;;
18082;SDS011;9168;51.194;6.840;2023-07-13T10:33:04;11.85;;;2.83;;
18082;SDS011;9168;51.194;6.840;2023-07-13T10:35:37;13.77;;;2.72;;
18082;SDS011;9168;51.194;6.840;2023-07-13T10:38:10;14.45;;;3.20;;
18082;SDS011;9168;51.194;6.840;2023-07-13T10:40:39;15.75;;;2.88;;
18082;SDS011;9168;51.194;6.840;2023-07-13T10:43:10;15.43;;;2.92;;
18082;SDS011;9168;51.194;6.840;2023-07-13T10:45:45;12.50;;;3.00;;
18082;SDS011;9168;51.194;6.840;2023-07-13T10:48:16;10.68;;;2.60;;
18082;SDS011;9168;51.194;6.840;2023-07-13T10:50:45;11.07;;;2.80;;
18082;SDS011;9168;51.194;6.840;2023-07-13T10:53:18;11.45;;;2.97;;
18082;SDS011;9168;51.194;6.840;2023-07-13T10:55:58;13.52;;;3.33;;
18082;SDS011;9168;51.194;6.840;2023-07-13T10:58:32;13.27;;;2.78;;
18082;SDS011;9168;51.194;6.840;2023-07-13T11:01:03;7.70;;;2.22;;
18082;SDS011;9168;51.194;6.840;2023-07-13T11:03:35;13.40;;;2.47;;
18082;SDS011;9168;51.194;6.840;2023-07-13T11:06:05;14.55;;;2.85;;
18082;SDS011;9168;51.194;6.840;2023-07-13T11:08:36;14.88;;;2.92;;
18082;SDS011;9168;51.194;6.840;2023-07-13T11:11:31;9.50;;;2.70;;
18082;SDS011;9168;51.194;6.840;2023-07-13T11:14:01;9.30;;;2.58;;
18082;SDS011;9168;51.194;6.840;2023-07-13T11:16:36;10.38;;;3.08;;
18082;SDS011;9168;51.194;6.840;2023-07-13T11:19:40;9.35;;;2.60;;
18082;SDS011;9168;51.194;6.840;2023-07-13T11:22:21;11.27;;;2.70;;
18082;SDS011;9168;51.194;6.840;2023-07-13T11:24:56;9.02;;;2.85;;
18082;SDS011;9168;51.194;6.840;2023-07-13T11:27:35;12.45;;;2.55;;
18082;SDS011;9168;51.194;6.840;2023-07-13T11:30:09;11.25;;;2.50;;
18082;SDS011;9168;51.194;6.840;2023-07-13T11:32:50;11.38;;;2.65;;
18082;SDS011;9168;51.194;6.840;2023-07-13T11:35:21;10.13;;;2.47;;
18082;SDS011;9168;51.194;6.840;2023-07-13T11:37:52;13.82;;;2.78;;
18082;SDS011;9168;51.194;6.840;2023-07-13T11:40:19;8.07;;;2.38;;
18082;SDS011;9168;51.194;6.840;2023-07-13T11:42:52;9.57;;;2.47;;
18082;SDS011;9168;51.194;6.840;2023-07-13T11:45:19;10.13;;;2.40;;
18082;SDS011;9168;51.194;6.840;2023-07-13T11:47:48;7.25;;;2.20;;
18082;SDS011;9168;51.194;6.840;2023-07-13T11:50:19;13.57;;;2.80;;
18082;SDS011;9168;51.194;6.840;2023-07-13T11:52:49;13.10;;;2.75;;
18082;SDS011;9168;51.194;6.840;2023-07-13T11:55:19;18.00;;;3.17;;
18082;SDS011;9168;51.194;6.840;2023-07-13T11:57:49;11.02;;;3.00;;
18082;SDS011;9168;51.194;6.840;2023-07-13T12:00:21;11.43;;;3.13;;
18082;SDS011;9168;51.194;6.840;2023-07-13T12:02:53;16.13;;;2.40;;
18082;SDS011;9168;51.194;6.840;2023-07-13T12:05:23;7.15;;;2.65;;
18082;SDS011;9168;51.194;6.840;2023-07-13T12:07:51;13.50;;;2.50;;
18082;SDS011;9168;51.194;6.840;2023-07-13T12:10:23;11.18;;;2.58;;
18082;SDS011;9168;51.194;6.840;2023-07-13T12:12:55;12.70;;;2.55;;
18082;SDS011;9168;51.194;6.840;2023-07-13T12:15:27;8.65;;;2.72;;
18082;SDS011;9168;51.194;6.840;2023-07-13T12:18:00;10.25;;;2.20;;
18082;SDS011;9168;51.194;6.840;2023-07-13T12:20:30;9.48;;;2.47;;
18082;SDS011;9168;51.194;6.840;2023-07-13T12:23:04;15.48;;;2.63;;
18082;SDS011;9168;51.194;6.840;2023-07-13T12:25:32;7.85;;;2.42;;
18082;SDS011;9168;51.194;6.840;2023-07-13T12:27:59;11.50;;;2.50;;
18082;SDS011;9168;51.194;6.840;2023-07-13T12:30:47;6.35;;;2.10;;
18082;SDS011;9168;51.194;6.840;2023-07-13T12:33:15;7.78;;;2.10;;
18082;SDS011;9168;51.194;6.840;2023-07-13T12:35:45;12.07;;;2.55;;
18082;SDS011;9168;51.194;6.840;2023-07-13T12:38:15;15.68;;;2.47;;
18082;SDS011;9168;51.194;6.840;2023-07-13T12:40:42;7.90;;;1.95;;
18082;SDS011;9168;51.194;6.840;2023-07-13T12:43:10;10.55;;;1.90;;
18082;SDS011;9168;51.194;6.840;2023-07-13T12:45:38;6.57;;;2.10;;
18082;SDS011;9168;51.194;6.840;2023-07-13T12:48:20;14.60;;;2.70;;
18082;SDS011;9168;51.194;6.840;2023-07-13T12:50:50;12.75;;;2.22;;
18082;SDS011;9168;51.194;6.840;2023-07-13T12:53:19;10.40;;;2.30;;
18082;SDS011;9168;51.194;6.840;2023-07-13T12:55:48;8.07;;;2.08;;
18082;SDS011;9168;51.194;6.840;2023-07-13T12:58:19;7.32;;;2.00;;
18082;SDS011;9168;51.194;6.840;2023-07-13T13:00:50;8.95;;;2.13;;
18082;SDS011;9168;51.194;6.840;2023-07-13T13:03:21;8.70;;;2.63;;
18082;SDS011;9168;51.194;6.840;2023-07-13T13:06:00;10.00;;;2.22;;
18082;SDS011;9168;51.194;6.840;2023-07-13T13:08:29;9.15;;;2.03;;
18082;SDS011;9168;51.194;6.840;2023-07-13T13:10:57;11.57;;;2.38;;
18082;SDS011;9168;51.194;6.840;2023-07-13T13:13:23;10.15;;;2.45;;
18082;SDS011;9168;51.194;6.840;2023-07-13T13:15:50;11.93;;;2.35;;
18082;SDS011;9168;51.194;6.840;2023-07-13T13:18:18;11.27;;;2.60;;
18082;SDS011;9168;51.194;6.840;2023-07-13T13:20:48;10.05;;;2.40;;
18082;SDS011;9168;51.194;6.840;2023-07-13T13:23:18;6.15;;;2.58;;
18082;SDS011;9168;51.194;6.840;2023-07-13T13:25:49;11.02;;;2.10;;
18082;SDS011;9168;51.194;6.840;2023-07-13T13:28:18;12.38;;;2.40;;
18082;SDS011;9168;51.194;6.840;2023-07-13T13:30:47;10.93;;;2.30;;
18082;SDS011;9168;51.194;6.840;2023-07-13T13:33:16;7.90;;;2.00;;
18082;SDS011;9168;51.194;6.840;2023-07-13T13:35:44;12.52;;;2.40;;
18082;SDS011;9168;51.194;6.840;2023-07-13T13:38:11;13.20;;;2.50;;
18082;SDS011;9168;51.194;6.840;2023-07-13T13:40:40;9.23;;;2.45;;
18082;SDS011;9168;51.194;6.840;2023-07-13T13:43:13;11.52;;;2.47;;
18082;SDS011;9168;51.194;6.840;2023-07-13T13:45:41;11.40;;;2.55;;
18082;SDS011;9168;51.194;6.840;2023-07-13T13:48:12;8.85;;;2.42;;
18082;SDS011;9168;51.194;6.840;2023-07-13T13:50:41;10.63;;;2.33;;
18082;SDS011;9168;51.194;6.840;2023-07-13T13:53:09;9.90;;;2.42;;
18082;SDS011;9168;51.194;6.840;2023-07-13T13:55:38;7.32;;;2.25;;
18082;SDS011;9168;51.194;6.840;2023-07-13T13:58:08;12.25;;;2.40;;
18082;SDS011;9168;51.194;6.840;2023-07-13T14:00:35;9.75;;;2.10;;
18082;SDS011;9168;51.194;6.840;2023-07-13T14:03:04;10.95;;;2.13;;
18082;SDS011;9168;51.194;6.840;2023-07-13T14:05:34;7.53;;;2.25;;
18082;SDS011;9168;51.194;6.840;2023-07-13T14:08:01;7.25;;;2.10;;
18082;SDS011;9168;51.194;6.840;2023-07-13T14:10:28;5.43;;;1.90;;
18082;SDS011;9168;51.194;6.840;2023-07-13T14:12:56;6.22;;;2.20;;
18082;SDS011;9168;51.194;6.840;2023-07-13T14:15:25;6.15;;;2.08;;
18082;SDS011;9168;51.194;6.840;2023-07-13T14:17:53;6.55;;;1.95;;
18082;SDS011;9168;51.194;6.840;2023-07-13T14:20:20;10.48;;;2.38;;
18082;SDS011;9168;51.194;6.840;2023-07-13T14:22:49;5.28;;;2.03;;
18082;SDS011;9168;51.194;6.840;2023-07-13T14:25:17;8.10;;;2.17;;
18082;SDS011;9168;51.194;6.840;2023-07-13T14:27:45;10.52;;;2.25;;
18082;SDS011;9168;51.194;6.840;2023-07-13T14:30:16;10.68;;;2.58;;
18082;SDS011;9168;51.194;6.840;2023-07-13T14:32:46;8.60;;;2.28;;
18082;SDS011;9168;51.194;6.840;2023-07-13T14:35:14;4.13;;;2.13;;
18082;SDS011;9168;51.194;6.840;2023-07-13T14:37:42;8.75;;;2.22;;
18082;SDS011;9168;51.194;6.840;2023-07-13T14:40:12;6.65;;;2.15;;
18082;SDS011;9168;51.194;6.840;2023-07-13T14:42:40;8.65;;;2.20;;
18082;SDS011;9168;51.194;6.840;2023-07-13T14:45:12;6.43;;;2.45;;
18082;SDS011;9168;51.194;6.840;2023-07-13T14:47:39;6.10;;;2.30;;
18082;SDS011;9168;51.194;6.840;2023-07-13T14:52:42;4.18;;;2.17;;
18082;SDS011;9168;51.194;6.840;2023-07-13T14:55:11;8.13;;;2.38;;
18082;SDS011;9168;51.194;6.840;2023-07-13T14:57:38;9.85;;;2.53;;
18082;SDS011;9168;51.194;6.840;2023-07-13T15:00:07;19.75;;;2.70;;
18082;SDS011;9168;51.194;6.840;2023-07-13T15:02:40;11.45;;;2.63;;
18082;SDS011;9168;51.194;6.840;2023-07-13T15:05:12;15.90;;;3.58;;